createdAt,value
2023-02-19T00:02:19.718Z,2.19
2023-02-19T00:04:47.499Z,2.20
2023-02-19T00:07:15.153Z,2.21
2023-02-19T00:09:42.851Z,2.20
2023-02-19T00:12:10.665Z,2.21
2023-02-19T00:14:38.310Z,2.21
2023-02-19T00:17:06.092Z,2.23
2023-02-19T00:19:33.755Z,2.21
2023-02-19T00:22:01.510Z,2.21
2023-02-19T00:24:29.158Z,2.20
2023-02-19T00:26:56.849Z,2.20
2023-02-19T00:29:25.307Z,2.20
2023-02-19T00:31:53.033Z,2.22
2023-02-19T00:34:20.952Z,2.21
2023-02-19T00:36:48.617Z,2.21
2023-02-19T00:39:18.608Z,2.21
2023-02-19T00:41:46.792Z,2.22
2023-02-19T00:44:15.629Z,2.21
2023-02-19T00:46:46.619Z,2.22
2023-02-19T00:49:20.969Z,2.22
2023-02-19T00:51:50.020Z,2.23
2023-02-19T00:54:18.015Z,2.24
2023-02-19T00:56:45.884Z,2.22
2023-02-19T00:59:13.842Z,2.23
2023-02-19T02:08:32.183Z,2.37
2023-02-19T07:00:12.676Z,2.00
2023-02-19T07:02:40.605Z,1.99
2023-02-19T07:05:08.453Z,2.00
2023-02-19T07:07:36.424Z,2.01
2023-02-19T07:10:05.154Z,2.02
2023-02-19T07:12:32.985Z,2.02
2023-02-19T07:15:00.853Z,2.02
2023-02-19T07:17:32.197Z,2.01
2023-02-19T07:20:00.072Z,2.01
2023-02-19T07:22:28.048Z,2.03
2023-02-19T07:24:55.776Z,2.02
2023-02-19T07:27:23.863Z,2.00
2023-02-19T07:29:51.738Z,2.02
2023-02-19T07:32:19.593Z,2.03
2023-02-19T07:34:47.355Z,2.05
2023-02-19T07:37:15.225Z,2.07
2023-02-19T07:39:42.915Z,2.07
2023-02-19T07:42:10.755Z,2.08
2023-02-19T07:44:38.546Z,2.10
2023-02-19T07:47:06.358Z,2.14
2023-02-19T07:49:34.352Z,2.15
2023-02-19T07:52:02.318Z,2.18
2023-02-19T07:54:30.081Z,2.19
2023-02-19T07:56:58.149Z,2.21
2023-02-19T08:53:32.673Z,3.14
2023-02-19T08:56:08.516Z,3.13
2023-02-19T08:58:37.627Z,3.09
2023-02-19T09:01:12.050Z,3.10
2023-02-19T09:03:40.756Z,3.11
2023-02-19T09:06:14.767Z,3.14
2023-02-19T09:08:42.602Z,3.16
2023-02-19T09:11:10.695Z,3.28
2023-02-19T09:13:38.732Z,3.36
2023-02-19T09:16:07.111Z,3.33
2023-02-19T09:18:35.590Z,3.36
2023-02-19T09:21:05.325Z,3.40
2023-02-19T09:23:34.701Z,3.49
2023-02-19T09:26:06.981Z,3.60
2023-02-19T09:28:35.143Z,3.60
2023-02-19T09:31:07.744Z,3.60
2023-02-19T09:33:35.807Z,3.63
2023-02-19T09:36:04.404Z,3.71
2023-02-19T09:38:32.250Z,3.77
2023-02-19T09:41:07.946Z,3.79
2023-02-19T09:43:36.000Z,3.85
2023-02-19T09:46:12.054Z,3.83
2023-02-19T09:48:39.984Z,3.77
2023-02-19T09:51:11.034Z,3.83
2023-02-19T09:53:43.403Z,3.83
2023-02-19T09:56:11.365Z,3.82
2023-02-19T09:58:48.654Z,3.80
2023-02-19T10:01:17.907Z,3.80
2023-02-19T10:03:48.686Z,3.79
2023-02-19T10:06:23.973Z,3.76
2023-02-19T10:09:11.492Z,3.81
2023-02-19T10:11:39.737Z,3.82
2023-02-19T10:14:13.441Z,3.78
2023-02-19T10:16:45.592Z,3.80
2023-02-19T10:19:13.875Z,3.82
2023-02-19T10:21:42.805Z,3.85
2023-02-19T10:24:20.708Z,3.87
2023-02-19T10:26:50.382Z,3.96
2023-02-19T10:29:19.876Z,3.99
2023-02-19T10:31:48.465Z,4.03
2023-02-19T10:34:22.376Z,4.05
2023-02-19T10:36:51.685Z,4.03
2023-02-19T10:39:22.194Z,4.01
2023-02-19T10:41:51.698Z,4.05
2023-02-19T10:44:27.634Z,4.13
2023-02-19T10:46:59.406Z,4.25
2023-02-19T10:49:38.325Z,4.31
2023-02-19T10:52:35.479Z,4.36
2023-02-19T10:55:24.963Z,4.41
2023-02-19T10:57:52.830Z,4.52
2023-02-19T11:00:30.827Z,4.59
2023-02-19T11:03:18.088Z,4.63
2023-02-19T11:06:06.916Z,4.63
2023-02-19T11:08:40.711Z,4.58
2023-02-19T11:11:08.799Z,4.55
2023-02-19T11:13:38.179Z,4.52
2023-02-19T11:16:06.160Z,4.51
2023-02-19T11:18:36.365Z,4.57
2023-02-19T11:21:07.207Z,4.71
2023-02-19T11:23:38.454Z,4.76
2023-02-19T11:26:16.144Z,4.81
2023-02-19T11:28:44.327Z,4.83
2023-02-19T11:31:29.687Z,4.86
2023-02-19T11:34:13.839Z,4.96
2023-02-19T11:36:42.694Z,4.92
2023-02-19T11:39:16.672Z,4.89
2023-02-19T11:41:56.523Z,4.94
2023-02-19T11:44:36.641Z,4.95
2023-02-19T11:47:32.363Z,5.03
2023-02-19T11:50:14.176Z,5.09
2023-02-19T11:53:15.546Z,5.07
2023-02-19T11:55:55.050Z,4.86
2023-02-19T11:58:44.948Z,4.78
2023-02-19T12:01:38.854Z,4.79
2023-02-19T12:04:37.745Z,4.77
2023-02-19T12:07:24.146Z,4.85
2023-02-19T12:10:25.847Z,4.93
2023-02-19T12:13:43.589Z,4.97
2023-02-19T12:16:48.029Z,5.05
2023-02-19T12:19:26.211Z,5.13
2023-02-19T12:21:58.275Z,5.09
2023-02-19T12:24:54.617Z,4.99
2023-02-19T12:27:25.298Z,4.84
2023-02-19T12:30:17.437Z,4.80
2023-02-19T12:32:54.051Z,4.72
2023-02-19T12:35:51.094Z,4.67
2023-02-19T12:38:35.573Z,4.57
2023-02-19T12:41:20.103Z,4.54
2023-02-19T12:44:00.470Z,4.51
2023-02-19T12:46:33.552Z,4.46
2023-02-19T12:49:15.568Z,4.43
2023-02-19T12:51:55.396Z,4.38
2023-02-19T12:54:34.014Z,4.34
2023-02-19T12:57:16.222Z,4.29
2023-02-19T12:59:55.473Z,4.26
2023-02-19T13:02:28.812Z,4.26
2023-02-19T13:05:14.718Z,4.24
2023-02-19T13:08:12.296Z,4.24
2023-02-19T13:10:59.653Z,4.27
2023-02-19T13:13:46.426Z,4.35
2023-02-19T13:16:20.925Z,4.41
2023-02-19T13:18:59.341Z,4.47
2023-02-19T13:21:54.171Z,4.55
2023-02-19T13:24:34.530Z,4.60
2023-02-19T13:27:11.706Z,4.57
2023-02-19T13:29:45.697Z,4.52
2023-02-19T13:32:48.865Z,4.46
2023-02-19T13:35:28.354Z,4.51
2023-02-19T13:38:01.538Z,4.62
2023-02-19T13:40:29.714Z,4.75
2023-02-19T13:43:00.746Z,4.78
2023-02-19T13:45:33.750Z,4.85
2023-02-19T13:48:12.993Z,4.93
2023-02-19T13:50:41.852Z,5.05
2023-02-19T13:53:48.159Z,5.18
2023-02-19T13:56:34.479Z,5.27
2023-02-19T13:59:11.400Z,5.29
2023-02-19T14:01:54.416Z,5.30
2023-02-19T14:04:40.378Z,5.31
2023-02-19T14:07:08.069Z,5.23
2023-02-19T14:09:44.043Z,5.13
2023-02-19T14:12:16.117Z,4.96
2023-02-19T14:14:53.885Z,4.83
2023-02-19T14:17:42.531Z,4.67
2023-02-19T14:20:10.223Z,4.53
2023-02-19T14:22:47.726Z,4.45
2023-02-19T14:25:28.684Z,4.39
2023-02-19T14:28:25.058Z,4.37
2023-02-19T14:31:17.224Z,4.34
2023-02-19T14:33:58.243Z,4.30
2023-02-19T14:36:40.815Z,4.33
2023-02-19T14:39:17.179Z,4.33
2023-02-19T14:41:49.874Z,4.33
2023-02-19T14:44:25.917Z,4.32
2023-02-19T14:47:15.638Z,4.27
2023-02-19T14:49:51.658Z,4.25
2023-02-19T14:52:34.664Z,4.23
2023-02-19T14:55:24.140Z,4.22
2023-02-19T14:57:54.482Z,4.17
2023-02-19T15:00:25.312Z,4.16
2023-02-19T15:02:59.796Z,4.15
2023-02-19T15:05:31.218Z,4.12
2023-02-19T15:08:03.330Z,4.11
2023-02-19T15:10:33.469Z,4.06
2023-02-19T15:13:05.125Z,4.04
2023-02-19T15:15:36.560Z,4.03
2023-02-19T15:18:05.542Z,3.97
2023-02-19T15:20:37.065Z,3.98
2023-02-19T15:23:07.725Z,3.97
2023-02-19T15:25:38.766Z,3.96
2023-02-19T15:28:43.191Z,3.95
2023-02-19T15:31:15.623Z,3.94
2023-02-19T15:33:52.148Z,3.92
2023-02-19T15:36:37.923Z,3.88
2023-02-19T15:39:05.789Z,3.84
2023-02-19T15:41:35.330Z,3.78
2023-02-19T15:44:11.243Z,3.75
2023-02-19T15:46:41.161Z,3.73
2023-02-19T15:49:15.069Z,3.69
2023-02-19T15:51:56.860Z,3.66
2023-02-19T15:55:09.379Z,3.64
2023-02-19T15:57:42.877Z,3.61
2023-02-19T16:00:18.147Z,3.59
2023-02-19T16:02:47.027Z,3.56
2023-02-19T16:05:24.188Z,3.56
2023-02-19T16:08:17.292Z,3.53
2023-02-19T16:10:56.797Z,3.51
2023-02-19T16:13:30.898Z,3.51
2023-02-19T16:16:06.460Z,3.49
2023-02-19T16:18:35.157Z,3.49
2023-02-19T16:21:09.573Z,3.49
2023-02-19T16:23:43.232Z,3.46
2023-02-19T16:26:11.526Z,3.48
2023-02-19T16:28:41.436Z,3.47
2023-02-19T16:31:12.527Z,3.48
2023-02-19T16:33:48.762Z,3.45
2023-02-19T16:36:35.189Z,3.44
2023-02-19T16:39:08.756Z,3.44
2023-02-19T16:41:39.579Z,3.42
2023-02-19T16:44:25.969Z,3.42
2023-02-19T16:46:57.853Z,3.42
2023-02-19T16:49:25.702Z,3.41
2023-02-19T16:51:54.891Z,3.40
2023-02-19T16:54:22.666Z,3.39
2023-02-19T16:56:50.433Z,3.36
2023-02-19T16:59:18.396Z,3.33
2023-02-19T17:01:46.476Z,3.30
2023-02-19T17:04:15.992Z,3.28
2023-02-19T17:06:45.684Z,3.21
2023-02-19T17:09:13.552Z,3.16
2023-02-19T17:11:41.409Z,3.09
2023-02-19T17:14:09.478Z,3.05
2023-02-19T17:16:40.657Z,2.99
2023-02-19T17:19:18.330Z,2.93
2023-02-19T17:21:47.209Z,2.85
2023-02-19T17:24:15.227Z,2.79
2023-02-19T17:26:43.251Z,2.73
2023-02-19T17:29:14.293Z,2.68
2023-02-19T17:31:42.439Z,2.61
2023-02-19T17:34:10.756Z,2.55
2023-02-19T17:36:38.600Z,2.49
2023-02-19T17:39:12.201Z,2.43
2023-02-19T17:41:40.005Z,2.33
2023-02-19T17:44:07.770Z,2.30
2023-02-19T17:46:35.605Z,2.22
2023-02-19T17:49:03.754Z,2.16
2023-02-19T17:51:31.627Z,2.11
2023-02-19T17:53:59.700Z,2.05
2023-02-19T17:56:28.286Z,2.00
2023-02-19T17:58:57.755Z,1.95
2023-02-19T18:01:25.732Z,1.92
2023-02-19T18:03:53.958Z,1.85
2023-02-19T18:06:21.809Z,1.80
2023-02-19T18:08:52.436Z,1.77
2023-02-19T18:11:22.387Z,1.73
2023-02-19T18:13:52.003Z,1.68
2023-02-19T18:16:20.024Z,1.62
2023-02-19T18:18:47.888Z,1.59
2023-02-19T18:21:15.970Z,1.56
2023-02-19T18:23:43.927Z,1.53
2023-02-19T18:26:13.834Z,1.50
2023-02-19T18:28:41.920Z,1.46
2023-02-19T18:31:10.040Z,1.44
2023-02-19T18:33:38.472Z,1.39
2023-02-19T18:36:11.370Z,1.37
2023-02-19T18:38:39.609Z,1.36
2023-02-19T18:41:12.314Z,1.32
2023-02-19T18:43:42.026Z,1.30
2023-02-19T18:46:10.793Z,1.29
2023-02-19T18:48:39.284Z,1.25
2023-02-19T18:51:10.921Z,1.24
2023-02-19T18:53:39.228Z,1.22
2023-02-19T18:56:09.364Z,1.20
2023-02-19T18:58:37.591Z,1.17
2023-02-19T19:01:05.716Z,1.13
2023-02-19T19:03:34.173Z,1.10
2023-02-19T19:06:02.315Z,1.08
2023-02-19T19:08:30.821Z,1.05
2023-02-19T19:10:58.768Z,1.02
2023-02-19T19:13:26.629Z,1.00
2023-02-19T19:15:54.627Z,0.96
2023-02-19T19:18:22.667Z,0.95
2023-02-19T19:20:50.740Z,0.94
2023-02-19T19:23:18.846Z,0.93
2023-02-19T19:25:46.683Z,0.90
2023-02-19T19:28:14.791Z,0.90
2023-02-19T19:30:43.053Z,0.86
2023-02-19T19:33:12.130Z,0.84
2023-02-19T19:35:42.234Z,0.83
2023-02-19T19:38:10.202Z,0.82
2023-02-19T19:40:38.744Z,0.79
2023-02-19T19:43:06.958Z,0.76
2023-02-19T19:45:35.469Z,0.74
2023-02-19T19:48:03.404Z,0.72
2023-02-19T19:50:31.372Z,0.71
2023-02-19T19:52:59.238Z,0.67
2023-02-19T19:55:27.005Z,0.65
2023-02-19T19:57:54.978Z,0.62
2023-02-19T20:00:24.584Z,0.58
2023-02-19T20:02:52.665Z,0.55
2023-02-19T20:05:20.923Z,0.52
2023-02-19T20:07:49.711Z,0.47
2023-02-19T20:10:19.440Z,0.47
2023-02-19T20:12:47.594Z,0.46
2023-02-19T20:15:20.823Z,0.43
2023-02-19T20:17:49.686Z,0.40
2023-02-19T20:20:18.665Z,0.39
2023-02-19T20:22:46.532Z,0.37
2023-02-19T20:25:16.236Z,0.34
2023-02-19T20:27:44.104Z,0.33
2023-02-19T20:30:13.884Z,0.29
2023-02-19T20:32:41.609Z,0.29
2023-02-19T20:35:09.773Z,0.29
2023-02-19T20:37:41.286Z,0.27
2023-02-19T20:40:11.813Z,0.26
2023-02-19T20:42:39.922Z,0.25
2023-02-19T20:45:08.503Z,0.24
2023-02-19T20:47:38.804Z,0.22
2023-02-19T20:50:08.226Z,0.19
2023-02-19T20:52:36.725Z,0.17
2023-02-19T20:55:05.493Z,0.17
2023-02-19T20:57:33.563Z,0.16
2023-02-19T21:00:01.749Z,0.17
2023-02-19T21:02:30.243Z,0.17
2023-02-19T21:04:58.280Z,0.15
2023-02-19T21:07:26.498Z,0.16
2023-02-19T21:09:55.040Z,0.16
2023-02-19T21:12:23.093Z,0.15
2023-02-19T21:14:50.867Z,0.14
2023-02-19T21:17:18.728Z,0.15
2023-02-19T21:19:50.161Z,0.14
2023-02-19T21:22:18.140Z,0.14
2023-02-19T21:24:49.690Z,0.11
2023-02-19T21:27:18.428Z,0.09
2023-02-19T21:29:47.386Z,0.07
2023-02-19T21:32:15.298Z,0.07
2023-02-19T21:34:43.283Z,0.05
2023-02-19T21:37:11.167Z,0.03
2023-02-19T21:39:39.340Z,0.02
2023-02-19T21:42:07.105Z,-0.01
2023-02-19T21:44:35.076Z,-0.02
2023-02-19T21:47:03.144Z,-0.03
2023-02-19T21:49:31.009Z,-0.05
2023-02-19T21:51:59.089Z,-0.06
2023-02-19T21:54:27.409Z,-0.08
2023-02-19T21:56:55.660Z,-0.10
2023-02-19T21:59:23.708Z,-0.12
2023-02-19T22:01:51.675Z,-0.13
2023-02-19T22:04:24.614Z,-0.15
2023-02-19T22:06:56.950Z,-0.15
2023-02-19T22:09:24.861Z,-0.16
2023-02-19T22:11:52.754Z,-0.17
2023-02-19T22:14:20.730Z,-0.18
2023-02-19T22:16:48.572Z,-0.19
2023-02-19T22:19:16.664Z,-0.21
2023-02-19T22:21:45.570Z,-0.22
2023-02-19T22:24:21.509Z,-0.23
2023-02-19T22:26:50.908Z,-0.22
2023-02-19T22:29:19.491Z,-0.23
2023-02-19T22:31:47.595Z,-0.22
2023-02-19T22:34:16.450Z,-0.22
2023-02-19T22:36:44.320Z,-0.20
2023-02-19T22:39:24.419Z,-0.18
2023-02-19T22:41:53.444Z,-0.13
2023-02-19T22:44:21.535Z,-0.09
2023-02-19T22:46:55.293Z,-0.05
2023-02-19T22:49:24.089Z,-0.01
2023-02-19T22:51:57.925Z,0.01
2023-02-19T22:54:27.230Z,0.03
2023-02-19T22:56:55.924Z,0.07
2023-02-19T22:59:24.001Z,0.08
2023-02-19T23:01:52.465Z,0.11
2023-02-19T23:04:22.028Z,0.12
2023-02-19T23:06:50.630Z,0.15
2023-02-19T23:09:28.674Z,0.17
2023-02-19T23:12:03.688Z,0.19
2023-02-19T23:14:31.808Z,0.20
2023-02-19T23:16:59.959Z,0.22
2023-02-19T23:19:28.255Z,0.26
2023-02-19T23:21:56.280Z,0.27
2023-02-19T23:24:24.352Z,0.31
2023-02-19T23:26:53.675Z,0.31
2023-02-19T23:29:25.375Z,0.34
2023-02-19T23:31:54.599Z,0.37
2023-02-19T23:34:24.456Z,0.38
2023-02-19T23:36:52.691Z,0.42
2023-02-19T23:39:21.891Z,0.42
2023-02-19T23:41:52.308Z,0.43
2023-02-19T23:44:21.915Z,0.45
2023-02-19T23:46:51.213Z,0.45
2023-02-19T23:49:19.608Z,0.43
2023-02-19T23:51:47.458Z,0.44
2023-02-19T23:54:15.732Z,0.45
2023-02-19T23:56:43.847Z,0.45
2023-02-19T23:59:12.498Z,0.46
